createdAt,value
2019-05-21T00:00:40.000Z,12.82
2019-05-21T00:03:08.681Z,13.01
2019-05-21T00:05:37.179Z,13.27
2019-05-21T00:08:05.815Z,13.39
2019-05-21T00:10:34.480Z,13.31
2019-05-21T00:13:03.057Z,13.38
2019-05-21T00:15:31.754Z,13.28
2019-05-21T00:18:00.324Z,13.30
2019-05-21T00:20:28.974Z,13.32
2019-05-21T00:22:57.630Z,13.29
2019-05-21T00:25:26.208Z,13.17
2019-05-21T00:27:57.767Z,13.17
2019-05-21T00:31:02.907Z,12.92
2019-05-21T00:34:07.754Z,12.67
2019-05-21T00:37:14.616Z,12.89
2019-05-21T00:40:19.481Z,12.85
2019-05-21T00:42:48.142Z,12.87
2019-05-21T00:45:16.796Z,12.85
2019-05-21T00:47:45.458Z,12.81
2019-05-21T00:50:14.202Z,12.78
2019-05-21T00:52:42.887Z,12.81
2019-05-21T00:55:11.635Z,12.84
2019-05-21T00:57:40.219Z,12.83
2019-05-21T01:00:09.746Z,12.80
2019-05-21T01:02:38.580Z,12.80
2019-05-21T01:05:07.332Z,12.78
2019-05-21T01:07:35.983Z,12.73
2019-05-21T01:10:06.549Z,12.55
2019-05-21T01:12:35.060Z,12.36
2019-05-21T01:15:05.710Z,12.06
2019-05-21T01:17:34.319Z,11.85
2019-05-21T01:20:02.964Z,11.79
2019-05-21T01:22:31.532Z,11.96
2019-05-21T01:25:00.101Z,11.89
2019-05-21T01:27:31.074Z,11.58
2019-05-21T01:29:59.582Z,11.39
2019-05-21T01:32:28.133Z,11.59
2019-05-21T01:34:56.791Z,11.72
2019-05-21T01:37:25.404Z,11.55
2019-05-21T01:39:53.973Z,11.45
2019-05-21T01:42:22.597Z,11.22
2019-05-21T01:44:51.243Z,11.25
2019-05-21T01:47:19.788Z,11.28
2019-05-21T01:49:48.434Z,11.27
2019-05-21T01:52:17.039Z,11.10
2019-05-21T01:54:45.652Z,11.07
2019-05-21T01:57:14.246Z,11.05
2019-05-21T01:59:42.820Z,11.34
2019-05-21T02:02:11.457Z,11.32
2019-05-21T02:04:39.929Z,11.39
2019-05-21T02:07:08.558Z,11.42
2019-05-21T02:09:38.843Z,11.49
2019-05-21T02:12:10.648Z,11.56
2019-05-21T02:14:37.714Z,11.50
2019-05-21T02:17:06.394Z,11.45
2019-05-21T02:19:37.366Z,11.43
2019-05-21T02:22:05.992Z,11.40
2019-05-21T02:24:34.556Z,11.33
2019-05-21T02:27:03.135Z,11.24
2019-05-21T02:29:31.646Z,11.18
2019-05-21T02:32:00.221Z,11.18
2019-05-21T02:34:28.898Z,11.12
2019-05-21T02:36:57.547Z,11.13
2019-05-21T02:39:26.055Z,11.24
2019-05-21T02:41:54.732Z,11.31
2019-05-21T02:44:23.286Z,11.27
2019-05-21T02:46:51.987Z,11.27
2019-05-21T02:49:20.635Z,11.27
2019-05-21T02:51:49.220Z,11.21
2019-05-21T02:54:17.805Z,10.99
2019-05-21T02:56:46.495Z,10.97
2019-05-21T02:59:15.082Z,10.92
2019-05-21T03:01:45.376Z,10.79
2019-05-21T03:04:14.032Z,10.86
2019-05-21T03:06:42.650Z,10.95
2019-05-21T03:09:11.363Z,11.14
2019-05-21T03:11:39.988Z,11.16
2019-05-21T03:14:08.606Z,11.17
2019-05-21T03:16:37.201Z,11.09
2019-05-21T03:19:05.861Z,10.91
2019-05-21T03:21:34.436Z,10.99
2019-05-21T03:24:02.975Z,11.00
2019-05-21T03:26:34.039Z,10.92
2019-05-21T03:29:02.628Z,10.93
2019-05-21T03:31:31.482Z,10.99
2019-05-21T03:34:00.161Z,11.03
2019-05-21T03:36:33.113Z,11.16
2019-05-21T03:38:59.094Z,11.12
2019-05-21T03:41:27.776Z,11.19
2019-05-21T03:43:56.428Z,11.19
2019-05-21T03:46:25.048Z,11.15
2019-05-21T03:48:53.685Z,11.21
2019-05-21T03:51:22.344Z,11.35
2019-05-21T03:53:51.005Z,11.36
2019-05-21T03:56:19.532Z,11.48
2019-05-21T03:58:48.113Z,11.60
2019-05-21T04:01:16.701Z,11.87
2019-05-21T04:03:45.352Z,11.95
2019-05-21T04:06:13.868Z,12.14
2019-05-21T04:08:42.440Z,12.21
2019-05-21T04:11:11.194Z,12.14
2019-05-21T04:13:39.850Z,12.26
2019-05-21T04:16:10.136Z,12.40
2019-05-21T04:18:46.175Z,12.59
2019-05-21T04:21:14.737Z,12.63
2019-05-21T04:23:43.367Z,12.94
2019-05-21T04:26:12.005Z,13.05
2019-05-21T04:28:40.567Z,13.11
2019-05-21T04:31:09.224Z,13.30
2019-05-21T04:33:37.801Z,13.49
2019-05-21T04:36:06.459Z,13.61
2019-05-21T04:38:35.090Z,13.67
2019-05-21T04:41:03.740Z,13.69
2019-05-21T04:43:32.260Z,13.80
2019-05-21T04:46:00.864Z,14.03
2019-05-21T04:48:29.438Z,14.05
2019-05-21T04:50:58.135Z,14.13
2019-05-21T04:53:26.798Z,14.13
2019-05-21T04:55:55.449Z,14.26
2019-05-21T04:58:24.088Z,14.40
2019-05-21T05:00:52.708Z,14.49
2019-05-21T05:03:21.348Z,14.71
2019-05-21T05:05:49.919Z,14.93
2019-05-21T05:08:18.600Z,14.98
2019-05-21T05:10:49.269Z,15.07
2019-05-21T05:13:17.642Z,15.18
2019-05-21T05:15:46.294Z,15.31
2019-05-21T05:18:14.856Z,15.37
2019-05-21T05:20:43.502Z,15.42
2019-05-21T05:23:12.078Z,15.59
2019-05-21T05:25:40.765Z,15.74
2019-05-21T05:28:09.351Z,15.90
2019-05-21T05:30:37.998Z,16.03
2019-05-21T05:33:06.691Z,16.03
2019-05-21T05:35:35.350Z,16.25
2019-05-21T05:38:04.029Z,16.45
2019-05-21T05:40:32.783Z,16.45
2019-05-21T05:43:04.127Z,16.61
2019-05-21T05:45:32.816Z,16.81
2019-05-21T05:48:01.388Z,16.99
2019-05-21T05:50:43.921Z,17.13
2019-05-21T05:53:12.565Z,17.23
2019-05-21T05:55:41.125Z,17.38
2019-05-21T05:58:09.712Z,17.42
2019-05-21T06:00:38.424Z,17.57
2019-05-21T06:03:07.075Z,17.63
2019-05-21T06:05:35.716Z,17.64
2019-05-21T06:08:04.739Z,17.86
2019-05-21T06:10:33.558Z,18.02
2019-05-21T06:13:02.243Z,18.16
2019-05-21T06:15:30.962Z,18.38
2019-05-21T06:17:59.527Z,18.48
2019-05-21T06:20:28.185Z,18.60
2019-05-21T06:22:56.820Z,18.62
2019-05-21T06:25:26.486Z,18.77
2019-05-21T06:27:55.196Z,18.83
2019-05-21T06:30:23.905Z,18.88
2019-05-21T06:32:52.461Z,19.07
2019-05-21T06:35:21.122Z,19.28
2019-05-21T06:37:49.818Z,19.46
2019-05-21T06:40:20.047Z,19.54
2019-05-21T06:42:48.538Z,19.76
2019-05-21T06:45:17.585Z,19.92
2019-05-21T06:47:46.127Z,20.04
2019-05-21T06:50:14.773Z,19.93
2019-05-21T06:52:45.884Z,20.21
2019-05-21T06:55:14.544Z,20.46
2019-05-21T06:57:43.040Z,20.74
2019-05-21T07:00:11.815Z,20.88
2019-05-21T07:02:40.604Z,20.85
2019-05-21T07:05:10.770Z,21.10
2019-05-21T07:07:40.311Z,21.30
2019-05-21T07:10:09.243Z,21.54
2019-05-21T07:12:37.905Z,21.70
2019-05-21T07:15:07.697Z,22.02
2019-05-21T07:17:36.256Z,22.59
2019-05-21T07:20:07.086Z,22.72
2019-05-21T07:22:35.816Z,22.85
2019-05-21T07:25:06.397Z,23.44
2019-05-21T07:27:35.033Z,23.39
2019-05-21T07:30:03.849Z,23.65
2019-05-21T07:32:32.507Z,23.98
2019-05-21T07:35:01.077Z,24.39
2019-05-21T07:37:29.743Z,24.50
2019-05-21T07:39:58.432Z,24.45
2019-05-21T07:42:26.997Z,24.66
2019-05-21T07:44:55.543Z,24.85
2019-05-21T07:47:24.228Z,24.28
2019-05-21T07:49:52.917Z,25.05
2019-05-21T07:52:21.458Z,25.18
2019-05-21T07:54:50.032Z,26.09
2019-05-21T07:57:18.715Z,25.83
2019-05-21T07:59:47.298Z,28.28
2019-05-21T08:02:15.937Z,29.31
2019-05-21T08:04:44.472Z,30.83
2019-05-21T08:07:13.102Z,31.05
2019-05-21T08:09:41.780Z,31.20
2019-05-21T08:12:27.824Z,32.62
2019-05-21T08:14:40.657Z,32.85
2019-05-21T08:17:09.278Z,32.85
2019-05-21T08:19:38.369Z,32.56
2019-05-21T08:22:07.032Z,32.79
2019-05-21T08:24:35.666Z,33.17
2019-05-21T08:27:04.729Z,33.17
2019-05-21T08:29:33.402Z,34.35
2019-05-21T08:32:01.902Z,34.35
2019-05-21T08:34:30.519Z,35.36
2019-05-21T08:36:59.184Z,34.81
2019-05-21T08:39:30.650Z,35.40
2019-05-21T08:41:59.310Z,34.93
2019-05-21T08:44:27.872Z,32.45
2019-05-21T08:46:56.586Z,31.47
2019-05-21T08:49:25.279Z,31.87
2019-05-21T08:51:53.836Z,33.35
2019-05-21T08:54:40.648Z,32.71
2019-05-21T08:57:18.061Z,33.17
2019-05-21T08:59:47.050Z,32.80
2019-05-21T09:02:15.784Z,31.39
2019-05-21T09:04:46.713Z,33.71
2019-05-21T09:07:14.824Z,34.38
2019-05-21T09:09:50.039Z,34.26
2019-05-21T09:12:13.761Z,35.53
2019-05-21T09:14:42.418Z,35.93
2019-05-21T09:17:11.080Z,35.44
2019-05-21T09:19:39.909Z,36.22
2019-05-21T09:22:08.595Z,35.85
2019-05-21T09:24:37.239Z,35.64
2019-05-21T09:27:05.878Z,35.65
2019-05-21T09:29:34.525Z,36.52
2019-05-21T09:32:03.246Z,36.89
2019-05-21T09:34:47.440Z,35.73
2019-05-21T09:37:02.248Z,35.43
2019-05-21T09:39:30.926Z,36.24
2019-05-21T09:41:59.614Z,35.18
2019-05-21T09:44:28.261Z,37.15
2019-05-21T09:46:56.938Z,37.88
2019-05-21T09:49:25.607Z,36.77
2019-05-21T09:51:54.148Z,36.60
2019-05-21T09:54:26.016Z,37.14
2019-05-21T09:56:54.595Z,38.12
2019-05-21T09:59:24.876Z,38.10
2019-05-21T10:01:55.114Z,35.94
2019-05-21T10:04:23.667Z,35.26
2019-05-21T10:06:52.302Z,35.94
2019-05-21T10:09:21.219Z,37.45
2019-05-21T10:11:49.858Z,38.77
2019-05-21T10:14:18.549Z,39.53
2019-05-21T10:16:47.272Z,40.23
2019-05-21T10:19:15.902Z,39.88
2019-05-21T10:21:44.471Z,37.56
2019-05-21T10:24:13.102Z,38.61
2019-05-21T10:26:41.750Z,38.69
2019-05-21T10:29:10.407Z,37.90
2019-05-21T10:31:39.039Z,36.75
2019-05-21T10:34:07.826Z,37.76
2019-05-21T10:36:36.411Z,37.71
2019-05-21T10:39:07.385Z,39.79
2019-05-21T10:41:38.822Z,38.65
2019-05-21T10:44:07.611Z,38.37
2019-05-21T10:46:36.257Z,39.41
2019-05-21T10:49:05.338Z,39.55
2019-05-21T10:51:33.972Z,38.99
2019-05-21T10:54:03.385Z,37.75
2019-05-21T10:56:46.706Z,38.93
2019-05-21T10:59:05.250Z,39.46
2019-05-21T11:01:44.552Z,38.67
2019-05-21T11:04:20.838Z,37.81
2019-05-21T11:06:49.461Z,38.18
2019-05-21T11:09:22.270Z,38.77
2019-05-21T11:11:50.956Z,38.92
2019-05-21T11:14:19.619Z,38.44
2019-05-21T11:16:48.295Z,40.40
2019-05-21T11:19:16.978Z,39.74
2019-05-21T11:21:48.363Z,40.36
2019-05-21T11:24:17.075Z,38.65
2019-05-21T11:26:45.707Z,37.13
2019-05-21T11:29:14.266Z,36.31
2019-05-21T11:31:55.717Z,36.40
2019-05-21T11:34:13.280Z,36.85
2019-05-21T11:36:41.971Z,35.45
2019-05-21T11:39:10.706Z,33.29
2019-05-21T11:41:39.375Z,32.45
2019-05-21T11:44:08.113Z,31.47
2019-05-21T11:46:36.824Z,29.96
2019-05-21T11:49:05.797Z,29.92
2019-05-21T11:51:34.440Z,29.89
2019-05-21T11:54:03.018Z,29.90
2019-05-21T11:56:31.585Z,30.21
2019-05-21T11:59:00.190Z,30.62
2019-05-21T12:01:28.801Z,32.20
2019-05-21T12:03:57.389Z,31.79
2019-05-21T12:06:26.050Z,30.64
2019-05-21T12:08:57.125Z,30.90
2019-05-21T12:11:24.855Z,30.17
2019-05-21T12:13:53.469Z,31.55
2019-05-21T12:16:22.138Z,32.31
2019-05-21T12:18:51.032Z,30.71
2019-05-21T12:21:19.622Z,30.42
2019-05-21T12:23:48.255Z,30.22
2019-05-21T12:26:16.958Z,29.44
2019-05-21T12:28:45.585Z,28.93
2019-05-21T12:31:14.240Z,28.31
2019-05-21T12:33:42.925Z,28.88
2019-05-21T12:36:11.497Z,31.00
2019-05-21T12:38:40.074Z,32.67
2019-05-21T12:41:08.640Z,32.33
2019-05-21T12:43:40.284Z,32.90
2019-05-21T12:46:08.947Z,36.02
2019-05-21T12:48:37.598Z,38.24
2019-05-21T12:51:06.237Z,40.63
2019-05-21T12:53:34.855Z,41.93
2019-05-21T12:56:03.499Z,43.11
2019-05-21T12:58:32.002Z,41.06
2019-05-21T13:01:00.706Z,39.26
2019-05-21T13:03:29.344Z,40.45
2019-05-21T13:05:58.038Z,41.10
2019-05-21T13:08:26.696Z,41.43
2019-05-21T13:10:55.352Z,41.64
2019-05-21T13:13:23.996Z,40.30
2019-05-21T13:15:52.645Z,37.89
2019-05-21T13:18:21.316Z,36.99
2019-05-21T13:20:49.936Z,34.38
2019-05-21T13:23:18.522Z,35.57
2019-05-21T13:25:47.137Z,37.79
2019-05-21T13:28:15.849Z,40.38
2019-05-21T13:30:44.447Z,39.79
2019-05-21T13:33:19.367Z,38.97
2019-05-21T13:35:46.238Z,39.39
2019-05-21T13:38:14.924Z,37.46
2019-05-21T13:40:43.729Z,36.31
2019-05-21T13:43:12.377Z,34.61
2019-05-21T13:45:41.037Z,32.93
2019-05-21T13:48:09.718Z,35.02
2019-05-21T13:50:38.291Z,36.98
2019-05-21T13:53:06.940Z,40.28
2019-05-21T13:55:35.514Z,39.90
2019-05-21T13:58:04.365Z,39.65
2019-05-21T14:00:35.039Z,39.31
2019-05-21T14:03:06.663Z,40.79
2019-05-21T14:05:35.294Z,41.38
2019-05-21T14:08:03.878Z,40.72
2019-05-21T14:10:32.521Z,42.06
2019-05-21T14:13:01.247Z,41.62
2019-05-21T14:15:30.006Z,41.88
2019-05-21T14:17:58.557Z,43.56
2019-05-21T14:20:27.190Z,44.05
2019-05-21T14:22:55.760Z,43.55
2019-05-21T14:25:24.468Z,43.56
2019-05-21T14:27:53.118Z,41.94
2019-05-21T14:30:21.881Z,41.73
2019-05-21T14:32:50.554Z,41.69
2019-05-21T14:35:19.169Z,41.99
2019-05-21T14:37:47.807Z,41.53
2019-05-21T14:40:31.011Z,40.74
2019-05-21T14:42:59.526Z,39.76
2019-05-21T14:45:18.309Z,40.08
2019-05-21T14:47:46.938Z,39.88
2019-05-21T14:50:16.627Z,40.00
2019-05-21T14:52:45.124Z,40.14
2019-05-21T14:55:13.775Z,40.01
2019-05-21T14:57:42.409Z,39.24
2019-05-21T15:00:22.428Z,38.65
2019-05-21T15:02:51.061Z,39.20
2019-05-21T15:05:22.518Z,38.62
2019-05-21T15:07:51.167Z,36.86
2019-05-21T15:10:19.806Z,37.02
2019-05-21T15:12:48.486Z,36.93
2019-05-21T15:15:17.304Z,37.17
2019-05-21T15:17:45.858Z,36.64
2019-05-21T15:20:34.943Z,36.72
2019-05-21T15:23:03.578Z,35.53
2019-05-21T15:25:32.362Z,33.94
2019-05-21T15:28:00.996Z,34.12
2019-05-21T15:30:29.564Z,34.66
2019-05-21T15:32:58.250Z,34.67
2019-05-21T15:35:26.896Z,34.76
2019-05-21T15:37:55.520Z,34.96
2019-05-21T15:40:24.145Z,34.82
2019-05-21T15:42:53.805Z,34.34
2019-05-21T15:45:22.837Z,33.36
2019-05-21T15:47:54.455Z,33.47
2019-05-21T15:50:23.139Z,33.50
2019-05-21T15:52:57.529Z,33.63
2019-05-21T15:55:26.140Z,33.67
2019-05-21T15:57:54.774Z,32.01
2019-05-21T16:00:23.789Z,31.73
2019-05-21T16:02:52.350Z,32.19
2019-05-21T16:05:21.061Z,32.66
2019-05-21T16:07:49.621Z,32.50
2019-05-21T16:10:18.269Z,31.88
2019-05-21T16:12:46.849Z,31.55
2019-05-21T16:15:15.526Z,32.11
2019-05-21T16:17:44.088Z,31.21
2019-05-21T16:20:17.103Z,31.50
2019-05-21T16:22:48.730Z,32.20
2019-05-21T16:25:17.379Z,32.53
2019-05-21T16:27:45.943Z,32.17
2019-05-21T16:30:14.723Z,32.03
2019-05-21T16:32:43.297Z,31.78
2019-05-21T16:35:11.916Z,31.43
2019-05-21T16:37:40.522Z,30.76
2019-05-21T16:40:09.370Z,29.18
2019-05-21T16:42:38.118Z,27.95
2019-05-21T16:45:07.655Z,27.93
2019-05-21T16:47:45.684Z,28.39
2019-05-21T16:50:10.547Z,28.70
2019-05-21T16:52:39.229Z,28.16
2019-05-21T16:55:08.630Z,27.33
2019-05-21T16:57:37.343Z,27.40
2019-05-21T17:00:07.783Z,27.41
2019-05-21T17:02:36.417Z,27.53
2019-05-21T17:05:07.039Z,27.10
2019-05-21T17:07:38.506Z,26.20
2019-05-21T17:10:07.958Z,25.23
2019-05-21T17:12:36.618Z,24.58
2019-05-21T17:15:12.085Z,24.21
2019-05-21T17:17:40.619Z,23.86
2019-05-21T17:20:09.746Z,23.63
2019-05-21T17:22:39.122Z,23.32
2019-05-21T17:25:08.555Z,23.07
2019-05-21T17:27:37.192Z,22.77
2019-05-21T17:30:09.830Z,22.43
2019-05-21T17:32:38.501Z,22.11
2019-05-21T17:35:07.913Z,21.80
2019-05-21T17:37:36.544Z,21.45
2019-05-21T17:40:05.989Z,21.14
2019-05-21T17:42:34.638Z,20.91
2019-05-21T17:45:04.164Z,20.76
2019-05-21T17:47:32.778Z,20.62
2019-05-21T17:50:01.410Z,20.41
2019-05-21T17:52:30.066Z,20.45
2019-05-21T17:54:58.805Z,20.42
2019-05-21T17:57:29.130Z,20.57
2019-05-21T17:59:57.703Z,20.48
2019-05-21T18:02:28.138Z,20.42
2019-05-21T18:05:00.166Z,20.27
2019-05-21T18:07:28.889Z,20.09
2019-05-21T18:09:58.329Z,20.00
2019-05-21T18:12:31.929Z,20.10
2019-05-21T18:14:58.349Z,20.05
2019-05-21T18:17:28.660Z,19.95
2019-05-21T18:19:57.225Z,19.86
2019-05-21T18:22:26.695Z,19.77
2019-05-21T18:24:55.290Z,19.71
2019-05-21T18:27:24.126Z,19.62
2019-05-21T18:29:52.734Z,19.53
2019-05-21T18:32:21.473Z,19.44
2019-05-21T18:34:53.016Z,19.29
2019-05-21T18:37:21.629Z,19.14
2019-05-21T18:39:50.260Z,19.05
2019-05-21T18:42:22.753Z,19.04
2019-05-21T18:44:51.553Z,19.00
2019-05-21T18:47:20.365Z,19.03
2019-05-21T18:49:48.938Z,19.04
2019-05-21T18:52:17.513Z,19.08
2019-05-21T18:54:47.955Z,19.13
2019-05-21T18:57:16.708Z,19.12
2019-05-21T18:59:45.274Z,19.09
2019-05-21T19:02:14.986Z,19.03
2019-05-21T19:04:43.635Z,18.99
2019-05-21T19:07:15.565Z,18.94
2019-05-21T19:09:44.206Z,18.93
2019-05-21T19:12:12.775Z,18.81
2019-05-21T19:14:45.045Z,18.71
2019-05-21T19:17:18.784Z,18.51
2019-05-21T19:19:47.371Z,18.44
2019-05-21T19:22:15.932Z,18.46
2019-05-21T19:24:44.600Z,18.49
2019-05-21T19:27:13.233Z,18.48
2019-05-21T19:29:41.903Z,18.59
2019-05-21T19:32:10.539Z,18.65
2019-05-21T19:34:39.035Z,18.33
2019-05-21T19:37:10.741Z,17.94
2019-05-21T19:39:39.723Z,17.72
2019-05-21T19:42:08.446Z,17.81
2019-05-21T19:44:37.051Z,17.03
2019-05-21T19:47:05.617Z,17.03
2019-05-21T19:49:34.252Z,16.94
2019-05-21T19:52:02.886Z,17.20
2019-05-21T19:54:31.564Z,16.93
2019-05-21T19:57:00.194Z,16.74
2019-05-21T19:59:28.770Z,16.67
2019-05-21T20:01:57.274Z,16.85
2019-05-21T20:04:26.483Z,16.82
2019-05-21T20:06:55.223Z,17.07
2019-05-21T20:09:26.914Z,17.13
2019-05-21T20:11:58.518Z,17.05
2019-05-21T20:14:27.761Z,17.05
2019-05-21T20:16:56.417Z,16.95
2019-05-21T20:19:25.351Z,16.67
2019-05-21T20:21:54.603Z,16.46
2019-05-21T20:24:24.115Z,16.14
2019-05-21T20:26:52.683Z,15.95
2019-05-21T20:29:22.063Z,16.03
2019-05-21T20:31:50.626Z,15.98
2019-05-21T20:34:19.326Z,15.89
2019-05-21T20:36:48.110Z,15.94
2019-05-21T20:39:18.549Z,15.81
2019-05-21T20:41:48.070Z,16.02
2019-05-21T20:44:18.289Z,16.19
2019-05-21T20:46:47.003Z,16.28
2019-05-21T20:49:16.247Z,16.16
2019-05-21T20:51:45.035Z,16.18
2019-05-21T20:54:16.324Z,16.12
2019-05-21T20:56:45.140Z,16.14
2019-05-21T20:59:13.777Z,15.86
2019-05-21T21:01:43.798Z,16.08
2019-05-21T21:04:12.709Z,16.08
2019-05-21T21:06:41.867Z,15.81
2019-05-21T21:09:11.978Z,15.82
2019-05-21T21:11:41.686Z,15.97
2019-05-21T21:14:17.963Z,15.97
2019-05-21T21:16:43.630Z,15.97
2019-05-21T21:19:12.537Z,15.90
2019-05-21T21:21:41.964Z,16.00
2019-05-21T21:24:10.805Z,16.07
2019-05-21T21:26:39.369Z,16.11
2019-05-21T21:29:09.203Z,16.11
2019-05-21T21:31:37.919Z,16.11
2019-05-21T21:34:06.570Z,16.17
2019-05-21T21:36:35.681Z,16.24
2019-05-21T21:39:06.638Z,16.19
2019-05-21T21:41:40.054Z,16.17
2019-05-21T21:44:08.690Z,16.03
2019-05-21T21:46:37.323Z,15.95
2019-05-21T21:49:06.344Z,15.87
2019-05-21T21:51:35.540Z,15.83
2019-05-21T21:54:04.480Z,15.83
2019-05-21T21:56:33.133Z,15.85
2019-05-21T21:59:01.828Z,15.87
2019-05-21T22:01:54.497Z,15.85
2019-05-21T22:04:28.116Z,15.81
2019-05-21T22:06:56.793Z,15.81
2019-05-21T22:09:27.053Z,15.84
2019-05-21T22:11:56.858Z,15.83
2019-05-21T22:14:26.331Z,15.43
2019-05-21T22:16:58.719Z,15.19
2019-05-21T22:19:27.369Z,14.86
2019-05-21T22:21:57.085Z,14.56
2019-05-21T22:24:26.196Z,14.39
2019-05-21T22:26:54.786Z,14.09
2019-05-21T22:29:23.370Z,13.76
2019-05-21T22:31:52.771Z,13.63
2019-05-21T22:34:21.504Z,13.52
2019-05-21T22:36:50.144Z,13.34
2019-05-21T22:39:20.482Z,13.31
2019-05-21T22:41:49.065Z,13.66
2019-05-21T22:44:17.712Z,13.89
2019-05-21T22:46:48.058Z,13.97
2019-05-21T22:49:16.676Z,13.62
2019-05-21T22:51:45.340Z,13.46
2019-05-21T22:54:13.992Z,13.46
2019-05-21T22:56:42.739Z,13.59
2019-05-21T22:59:11.304Z,13.66
2019-05-21T23:01:40.040Z,13.62
2019-05-21T23:04:09.254Z,13.55
2019-05-21T23:06:38.245Z,13.50
2019-05-21T23:09:08.454Z,13.42
2019-05-21T23:11:37.203Z,13.34
2019-05-21T23:14:05.955Z,13.31
2019-05-21T23:16:34.696Z,13.27
2019-05-21T23:19:03.915Z,13.10
2019-05-21T23:21:34.338Z,12.92
2019-05-21T23:24:03.588Z,12.74
2019-05-21T23:26:33.735Z,12.85
2019-05-21T23:29:02.741Z,12.93
2019-05-21T23:31:32.357Z,12.92
2019-05-21T23:36:47.684Z,13.01
2019-05-21T23:39:17.943Z,13.17
2019-05-21T23:41:46.744Z,13.33
2019-05-21T23:44:15.592Z,13.44
2019-05-21T23:46:44.344Z,13.49
2019-05-21T23:49:12.918Z,13.49
2019-05-21T23:51:41.576Z,13.49
2019-05-21T23:54:10.281Z,13.47
2019-05-21T23:56:38.929Z,13.47
2019-05-21T23:59:07.940Z,13.39
